Historyczne dane pomiarowe

Dodano dane terminowe – wersja testowa.

Dane z okresu 1951-2019

Wersja bazy: 1.34 [2019-03-16, lista zmian], aktualizacja planowana na 2019-04-15

Dane meteo z obszaru Polski uzyskane na podstawie danych udostępnionych przez Instytut Meteorologii i Gospodarki Wodnej – Państwowy Instytut Badawczy.

 

Wybierz Datę:    

       

TemperaturaWilgotnośćWiatrCiśnienieOpadyŚniegCzas trwania zjawisk
 Stacja t tx tn tng RH VA  wxwx mslp ppp RRR   cm mm wxwxwxwxwxwxwx
1961-08-14 15.0 19.1 9.4- 71.3- 6.0 2.7---- 0.0------------
1961-08-13 14.2 18.4 12.6- 81.3- 4.0 3.7---- 0.0------------
1961-08-12 18.1 21.3 14.3- 84.5- 6.0 2.0---- 0.7------------
1961-08-11 16.3 20.7 15.5- 91.5- 7.0 2.7---- 4.6------------
1961-08-10 18.3 22.2 13.0- 70.3- 5.3 1.0---- 0.7------------
1961-08-09 18.3 26.0 14.5- 73.3- 3.7 1.7---- 0.1------------
1961-08-08 16.2 20.2 12.7- 76.0- 5.3 2.0---- 0.0------------
1961-08-07 15.8 18.6 13.6- 94.0- 7.3 1.7---- 17.2------------
1961-08-06 20.0 27.9 14.7- 81.5- 3.7 4.3---- 3.8------------
1961-08-05 16.2 20.6 13.3- 77.3- 3.3 4.0---- 0.0------------
1961-08-04 15.2 18.2 10.2- 73.3- 5.3 2.3---- 0.2------------
1961-08-03 15.3 19.7 13.5- 90.3- 7.7 1.0---- 6.4------------
1961-08-02 17.4 22.2 11.6- 76.5- 2.7 3.7---- 1.5------------
1961-08-01 13.6 15.3 12.0- 89.0- 8.0 7.3---- 1.5------------
1961-07-31 15.0 17.8 12.2- 86.3- 8.0 5.0---- 9.9------------
1961-07-30 13.4 16.4 11.4- 91.3- 8.0 2.0---- 11.3------------
1961-07-29 14.4 19.1 13.3- 82.8- 6.7 1.3---- 0.0------------
1961-07-28 15.3 17.0 13.3- 89.0- 8.0 1.0---- 5.5------------
1961-07-27 16.8 22.5 14.3- 81.8- 7.0 3.3---- 0.0------------
1961-07-26 15.6 16.9 12.5- 81.5- 8.0 2.7---- 1.6------------
1961-07-25 14.3 17.5 9.9- 74.8- 7.3 5.0---- 0.0------------
1961-07-24 14.0 18.4 11.5- 87.5- 6.0 4.0---- 1.2------------
1961-07-23 14.5 17.4 13.0- 88.3- 7.7 2.3---- 2.3------------
1961-07-22 15.2 17.9 12.0- 86.0- 6.7 2.0---- 8.0------------
1961-07-21 14.9 18.8 11.6- 88.8- 5.0 2.3---- 6.5------------
1961-07-20 15.4 21.7 10.7- 84.5- 4.7 1.0---- 4.0------------
1961-07-19 14.4 20.6 11.3- 87.8- 5.3 1.0---- 2.5------------
1961-07-18 13.6 17.9 11.5- 89.5- 6.3 2.7---- 2.6------------
1961-07-17 17.0 21.2 10.8- 74.5- 5.3 1.7---- 2.7------------
1961-07-16 14.1 21.5 10.2- 92.8- 8.0 2.0---- 14.1------------
1961-07-15 16.9 22.8 10.9- 74.0- 3.3 2.3---- 0.0------------
1961-07-14 14.7 20.9 13.1- 78.3- 6.7 3.3---- 0.0------------
1961-07-13 20.3 26.2 12.7- 74.5- 5.3 3.7---- 4.3------------
1961-07-12 16.0 19.8 13.0- 88.3- 5.0 2.7---- 0.3------------
1961-07-11 14.7 19.4 10.1- 73.0- 3.7 1.7---- 0.5------------
1961-07-10 14.5 17.0 12.2- 80.3- 5.0 1.3---- 0.6------------
1961-07-09 16.9 22.5 13.4- 76.3- 3.3 4.0---- 1.6------------
1961-07-08 15.2 17.7 9.6- 69.5- 6.3 1.0---- 0.0------------
1961-07-07 13.1 16.8 9.3- 75.5- 5.3 3.3---- 0.4------------
1961-07-06 12.7 16.6 8.2- 76.3- 3.3 3.7---- 1.4------------
1961-07-05 14.6 17.4 13.6- 68.3- 5.0 5.3---- 0.0------------
1961-07-04 18.3 24.5 15.7- 68.5- 6.7 2.0---- 2.4------------
1961-07-03 24.2 29.5 13.6- 47.3- 1.0 1.3---- 1.6------------
1961-07-02 20.9 26.2 13.5- 63.3- 0.0 1.7---- 0.0------------
1961-07-01 16.2 22.1 10.8- 88.3- 3.7 0.7---- 0.0------------
1961-06-30 16.6 20.9 11.5- 73.0- 0.0 3.7---- 0.0------------
1961-06-29 13.9 16.8 10.5- 83.3- 5.3 2.3---- 0.7------------
1961-06-28 14.6 19.5 12.7- 72.3- 5.7 6.7---- 3.3------------
1961-06-27 20.8 29.7 14.4- 79.5- 5.3 6.3---- 14.3------------
1961-06-26 19.4 24.8 17.0- 67.0- 0.3 3.3---- 0.0------------
1961-06-25 20.9 25.8 14.8- 49.5- 4.3 5.3---- 0.0------------
1961-06-24 16.7 19.7 13.0- 67.3- 5.0 4.7---- 0.0------------
1961-06-23 17.1 22.3 13.7- 71.0- 3.3 2.3---- 0.0------------
1961-06-22 15.5 19.9 9.2- 70.5- 2.0 2.7---- 0.1------------
1961-06-21 14.4 20.2 9.5- 76.5- 6.7 3.7---- 5.1------------
1961-06-20 13.6 17.2 10.6- 67.5- 2.3 4.7---- 0.0------------
1961-06-19 15.9 21.7 14.6- 63.5- 3.3 5.7---- 0.0------------
1961-06-18 20.5 25.0 14.3- 66.5- 7.3 3.0---- 0.8------------
1961-06-17 16.3 20.1 11.5- 82.0- 5.7 1.7---- 0.7------------
1961-06-16 13.9 16.7 11.2- 88.8- 8.0 3.3---- 10.7------------
461.3 ms

 

Źródłem pochodzenia danych jest Instytut Meteorologii i Gospodarki Wodnej – Państwowy Instytut Badawczy. Dane Instytutu Meteorologii i Gospodarki Wodnej – Państwowego Instytutu Badawczego zostały przetworzone.

Dane źródłowe można odnaleźć na stronie https://dane.imgw.pl